Terminal Aerodrome Forecast
Issued by NWS

Home | Current Version | Previous Version | Text Only | Print | Product List | Glossary On
Versions: 1 2 3 4 5 6 7 8 9 10 11 12 13 14 15 16 17 18 19 20 21 22
003
FTUS41 KOKX 301943 AAA
TAFSWF
TAF AMD
KSWF 301943Z 3020/3124 22007KT P6SM VCSH SCT010 SCT040
     FM302200 23007KT P6SM VCTS BKN040CB
     FM310100 VRB04KT P6SM BKN040
     FM310300 VRB04KT 3SM BR BKN040
     FM311200 32008KT P6SM FEW040 SCT090 BKN250
      AMD NOT SKED=

USA.gov is the U.S. government's official web portal to all federal, state and local government web resources and services.